sensor_id;sensor_type;location;lat;lon;timestamp;P1;durP1;ratioP1;P2;durP2;ratioP2
12816;SDS011;6473;51.552;6.716;2022-08-03T00:01:33;4.90;;;2.20;;
12816;SDS011;6473;51.552;6.716;2022-08-03T00:04:02;2.10;;;1.90;;
12816;SDS011;6473;51.552;6.716;2022-08-03T00:06:30;1.88;;;1.77;;
12816;SDS011;6473;51.552;6.716;2022-08-03T00:08:57;3.85;;;2.28;;
12816;SDS011;6473;51.552;6.716;2022-08-03T00:11:24;2.25;;;1.83;;
12816;SDS011;6473;51.552;6.716;2022-08-03T00:13:51;2.65;;;2.17;;
12816;SDS011;6473;51.552;6.716;2022-08-03T00:16:20;3.67;;;2.15;;
12816;SDS011;6473;51.552;6.716;2022-08-03T00:18:55;3.30;;;2.00;;
12816;SDS011;6473;51.552;6.716;2022-08-03T00:21:22;3.05;;;2.50;;
12816;SDS011;6473;51.552;6.716;2022-08-03T00:23:52;3.38;;;2.17;;
12816;SDS011;6473;51.552;6.716;2022-08-03T00:26:19;2.75;;;2.00;;
12816;SDS011;6473;51.552;6.716;2022-08-03T00:28:47;3.20;;;2.13;;
12816;SDS011;6473;51.552;6.716;2022-08-03T00:31:14;3.97;;;2.00;;
12816;SDS011;6473;51.552;6.716;2022-08-03T00:33:45;2.47;;;2.10;;
12816;SDS011;6473;51.552;6.716;2022-08-03T00:36:12;2.22;;;2.00;;
12816;SDS011;6473;51.552;6.716;2022-08-03T00:38:39;3.92;;;2.40;;
12816;SDS011;6473;51.552;6.716;2022-08-03T00:41:06;2.50;;;2.15;;
12816;SDS011;6473;51.552;6.716;2022-08-03T00:43:33;2.50;;;2.28;;
12816;SDS011;6473;51.552;6.716;2022-08-03T00:46:00;2.88;;;1.88;;
12816;SDS011;6473;51.552;6.716;2022-08-03T00:48:27;3.80;;;2.10;;
12816;SDS011;6473;51.552;6.716;2022-08-03T00:50:56;2.13;;;1.92;;
12816;SDS011;6473;51.552;6.716;2022-08-03T00:53:23;1.90;;;1.70;;
12816;SDS011;6473;51.552;6.716;2022-08-03T00:55:52;3.95;;;2.00;;
12816;SDS011;6473;51.552;6.716;2022-08-03T00:58:19;3.25;;;2.50;;
12816;SDS011;6473;51.552;6.716;2022-08-03T01:00:46;2.92;;;2.15;;
12816;SDS011;6473;51.552;6.716;2022-08-03T01:03:13;5.22;;;2.55;;
12816;SDS011;6473;51.552;6.716;2022-08-03T01:05:43;2.65;;;2.17;;
12816;SDS011;6473;51.552;6.716;2022-08-03T01:08:21;2.00;;;1.80;;
12816;SDS011;6473;51.552;6.716;2022-08-03T01:10:56;2.92;;;2.13;;
12816;SDS011;6473;51.552;6.716;2022-08-03T01:13:33;2.03;;;1.88;;
12816;SDS011;6473;51.552;6.716;2022-08-03T01:16:07;2.42;;;2.10;;
12816;SDS011;6473;51.552;6.716;2022-08-03T01:18:43;2.75;;;1.90;;
12816;SDS011;6473;51.552;6.716;2022-08-03T01:21:17;2.78;;;2.38;;
12816;SDS011;6473;51.552;6.716;2022-08-03T01:23:58;3.17;;;2.03;;
12816;SDS011;6473;51.552;6.716;2022-08-03T01:26:37;4.38;;;2.20;;
12816;SDS011;6473;51.552;6.716;2022-08-03T01:32:26;2.30;;;2.10;;
12816;SDS011;6473;51.552;6.716;2022-08-03T01:35:01;2.65;;;1.95;;
12816;SDS011;6473;51.552;6.716;2022-08-03T01:37:32;2.17;;;1.85;;
12816;SDS011;6473;51.552;6.716;2022-08-03T01:40:04;3.55;;;2.30;;
12816;SDS011;6473;51.552;6.716;2022-08-03T01:42:35;2.45;;;2.25;;
12816;SDS011;6473;51.552;6.716;2022-08-03T01:45:07;3.05;;;2.20;;
12816;SDS011;6473;51.552;6.716;2022-08-03T01:47:39;2.30;;;2.10;;
12816;SDS011;6473;51.552;6.716;2022-08-03T01:50:07;2.45;;;2.13;;
12816;SDS011;6473;51.552;6.716;2022-08-03T01:52:36;2.90;;;1.95;;
12816;SDS011;6473;51.552;6.716;2022-08-03T01:55:06;4.28;;;2.30;;
12816;SDS011;6473;51.552;6.716;2022-08-03T01:57:38;2.88;;;2.35;;
12816;SDS011;6473;51.552;6.716;2022-08-03T02:00:10;2.20;;;1.90;;
12816;SDS011;6473;51.552;6.716;2022-08-03T02:02:41;3.95;;;2.05;;
12816;SDS011;6473;51.552;6.716;2022-08-03T02:05:11;2.28;;;2.08;;
12816;SDS011;6473;51.552;6.716;2022-08-03T02:07:48;2.97;;;2.28;;
12816;SDS011;6473;51.552;6.716;2022-08-03T02:10:17;2.47;;;1.98;;
12816;SDS011;6473;51.552;6.716;2022-08-03T02:13:04;2.35;;;2.15;;
12816;SDS011;6473;51.552;6.716;2022-08-03T02:15:38;2.10;;;2.00;;
12816;SDS011;6473;51.552;6.716;2022-08-03T02:18:09;2.40;;;2.20;;
12816;SDS011;6473;51.552;6.716;2022-08-03T02:23:42;3.97;;;2.38;;
12816;SDS011;6473;51.552;6.716;2022-08-03T02:26:11;2.35;;;1.90;;
12816;SDS011;6473;51.552;6.716;2022-08-03T02:28:42;2.33;;;2.13;;
12816;SDS011;6473;51.552;6.716;2022-08-03T02:31:19;3.03;;;2.50;;
12816;SDS011;6473;51.552;6.716;2022-08-03T02:33:49;3.45;;;2.30;;
12816;SDS011;6473;51.552;6.716;2022-08-03T02:36:19;2.33;;;2.13;;
12816;SDS011;6473;51.552;6.716;2022-08-03T02:38:51;2.35;;;2.15;;
12816;SDS011;6473;51.552;6.716;2022-08-03T02:41:23;2.42;;;2.22;;
12816;SDS011;6473;51.552;6.716;2022-08-03T02:43:54;2.72;;;2.10;;
12816;SDS011;6473;51.552;6.716;2022-08-03T02:46:26;3.13;;;2.40;;
12816;SDS011;6473;51.552;6.716;2022-08-03T02:48:56;2.33;;;2.13;;
12816;SDS011;6473;51.552;6.716;2022-08-03T02:51:26;2.63;;;2.40;;
12816;SDS011;6473;51.552;6.716;2022-08-03T02:53:55;2.67;;;2.30;;
12816;SDS011;6473;51.552;6.716;2022-08-03T02:56:24;2.38;;;1.90;;
12816;SDS011;6473;51.552;6.716;2022-08-03T02:58:53;3.78;;;2.30;;
12816;SDS011;6473;51.552;6.716;2022-08-03T03:01:21;2.92;;;2.08;;
12816;SDS011;6473;51.552;6.716;2022-08-03T03:03:52;3.85;;;2.72;;
12816;SDS011;6473;51.552;6.716;2022-08-03T03:06:22;3.28;;;2.30;;
12816;SDS011;6473;51.552;6.716;2022-08-03T03:08:51;2.70;;;2.08;;
12816;SDS011;6473;51.552;6.716;2022-08-03T03:11:19;2.60;;;2.25;;
12816;SDS011;6473;51.552;6.716;2022-08-03T03:13:47;3.88;;;2.10;;
12816;SDS011;6473;51.552;6.716;2022-08-03T03:16:15;2.38;;;2.17;;
12816;SDS011;6473;51.552;6.716;2022-08-03T03:18:45;4.70;;;2.28;;
12816;SDS011;6473;51.552;6.716;2022-08-03T03:21:15;3.88;;;2.25;;
12816;SDS011;6473;51.552;6.716;2022-08-03T03:23:44;3.88;;;2.30;;
12816;SDS011;6473;51.552;6.716;2022-08-03T03:26:13;2.55;;;2.35;;
12816;SDS011;6473;51.552;6.716;2022-08-03T03:28:40;2.50;;;2.30;;
12816;SDS011;6473;51.552;6.716;2022-08-03T03:31:09;2.53;;;2.33;;
12816;SDS011;6473;51.552;6.716;2022-08-03T03:33:36;4.30;;;2.53;;
12816;SDS011;6473;51.552;6.716;2022-08-03T03:36:05;4.25;;;2.50;;
12816;SDS011;6473;51.552;6.716;2022-08-03T03:38:33;5.40;;;2.10;;
12816;SDS011;6473;51.552;6.716;2022-08-03T03:41:03;2.60;;;2.30;;
12816;SDS011;6473;51.552;6.716;2022-08-03T03:43:30;4.63;;;2.40;;
12816;SDS011;6473;51.552;6.716;2022-08-03T03:45:58;4.32;;;3.45;;
12816;SDS011;6473;51.552;6.716;2022-08-03T03:48:25;3.47;;;2.53;;
12816;SDS011;6473;51.552;6.716;2022-08-03T03:50:53;4.45;;;2.45;;
12816;SDS011;6473;51.552;6.716;2022-08-03T03:53:22;5.10;;;2.90;;
12816;SDS011;6473;51.552;6.716;2022-08-03T03:55:50;3.65;;;2.90;;
12816;SDS011;6473;51.552;6.716;2022-08-03T03:58:18;3.20;;;2.78;;
12816;SDS011;6473;51.552;6.716;2022-08-03T04:00:45;3.00;;;2.70;;
12816;SDS011;6473;51.552;6.716;2022-08-03T04:03:16;3.92;;;2.70;;
12816;SDS011;6473;51.552;6.716;2022-08-03T04:05:50;3.00;;;2.63;;
12816;SDS011;6473;51.552;6.716;2022-08-03T04:08:36;3.10;;;2.47;;
12816;SDS011;6473;51.552;6.716;2022-08-03T04:11:21;5.18;;;2.88;;
12816;SDS011;6473;51.552;6.716;2022-08-03T04:13:52;2.67;;;2.45;;
12816;SDS011;6473;51.552;6.716;2022-08-03T04:16:23;3.30;;;2.92;;
12816;SDS011;6473;51.552;6.716;2022-08-03T04:18:54;4.18;;;2.88;;
12816;SDS011;6473;51.552;6.716;2022-08-03T04:21:24;4.32;;;3.22;;
12816;SDS011;6473;51.552;6.716;2022-08-03T04:23:55;3.47;;;3.15;;
12816;SDS011;6473;51.552;6.716;2022-08-03T04:26:26;6.20;;;3.20;;
12816;SDS011;6473;51.552;6.716;2022-08-03T04:28:56;4.20;;;3.15;;
12816;SDS011;6473;51.552;6.716;2022-08-03T04:31:34;3.78;;;2.85;;
12816;SDS011;6473;51.552;6.716;2022-08-03T04:34:04;4.65;;;2.80;;
12816;SDS011;6473;51.552;6.716;2022-08-03T04:36:31;3.97;;;2.90;;
12816;SDS011;6473;51.552;6.716;2022-08-03T04:39:05;4.05;;;2.92;;
12816;SDS011;6473;51.552;6.716;2022-08-03T04:41:36;3.92;;;3.00;;
12816;SDS011;6473;51.552;6.716;2022-08-03T04:44:05;4.97;;;3.15;;
12816;SDS011;6473;51.552;6.716;2022-08-03T04:46:34;7.72;;;3.47;;
12816;SDS011;6473;51.552;6.716;2022-08-03T04:49:05;4.47;;;3.05;;
12816;SDS011;6473;51.552;6.716;2022-08-03T04:51:37;8.55;;;3.70;;
12816;SDS011;6473;51.552;6.716;2022-08-03T04:54:06;7.32;;;3.10;;
12816;SDS011;6473;51.552;6.716;2022-08-03T04:56:38;3.15;;;2.78;;
12816;SDS011;6473;51.552;6.716;2022-08-03T04:59:05;8.13;;;3.85;;
12816;SDS011;6473;51.552;6.716;2022-08-03T05:01:33;5.72;;;3.30;;
12816;SDS011;6473;51.552;6.716;2022-08-03T05:04:02;6.85;;;3.85;;
12816;SDS011;6473;51.552;6.716;2022-08-03T05:06:29;7.30;;;3.83;;
12816;SDS011;6473;51.552;6.716;2022-08-03T05:08:56;5.45;;;4.03;;
12816;SDS011;6473;51.552;6.716;2022-08-03T05:11:25;6.88;;;3.67;;
12816;SDS011;6473;51.552;6.716;2022-08-03T05:13:52;8.35;;;4.30;;
12816;SDS011;6473;51.552;6.716;2022-08-03T05:16:18;13.13;;;5.00;;
12816;SDS011;6473;51.552;6.716;2022-08-03T05:18:45;10.95;;;4.68;;
12816;SDS011;6473;51.552;6.716;2022-08-03T05:21:13;12.63;;;4.60;;
12816;SDS011;6473;51.552;6.716;2022-08-03T05:23:41;7.50;;;4.70;;
12816;SDS011;6473;51.552;6.716;2022-08-03T05:26:08;9.85;;;4.63;;
12816;SDS011;6473;51.552;6.716;2022-08-03T05:28:39;13.00;;;4.80;;
12816;SDS011;6473;51.552;6.716;2022-08-03T05:31:08;14.02;;;4.70;;
12816;SDS011;6473;51.552;6.716;2022-08-03T05:33:49;8.93;;;4.95;;
12816;SDS011;6473;51.552;6.716;2022-08-03T05:36:16;9.32;;;4.88;;
12816;SDS011;6473;51.552;6.716;2022-08-03T05:38:43;9.77;;;5.15;;
12816;SDS011;6473;51.552;6.716;2022-08-03T05:41:10;12.73;;;4.35;;
12816;SDS011;6473;51.552;6.716;2022-08-03T05:43:45;13.77;;;5.03;;
12816;SDS011;6473;51.552;6.716;2022-08-03T05:46:12;9.60;;;5.35;;
12816;SDS011;6473;51.552;6.716;2022-08-03T05:48:52;13.20;;;4.90;;
12816;SDS011;6473;51.552;6.716;2022-08-03T05:51:19;8.73;;;4.38;;
12816;SDS011;6473;51.552;6.716;2022-08-03T05:53:50;7.53;;;5.07;;
12816;SDS011;6473;51.552;6.716;2022-08-03T05:56:20;8.70;;;4.47;;
12816;SDS011;6473;51.552;6.716;2022-08-03T05:58:52;11.05;;;4.22;;
12816;SDS011;6473;51.552;6.716;2022-08-03T06:01:19;7.32;;;3.88;;
12816;SDS011;6473;51.552;6.716;2022-08-03T06:03:47;6.90;;;4.03;;
12816;SDS011;6473;51.552;6.716;2022-08-03T06:06:14;5.78;;;3.35;;
12816;SDS011;6473;51.552;6.716;2022-08-03T06:08:42;6.47;;;3.85;;
12816;SDS011;6473;51.552;6.716;2022-08-03T06:11:10;4.57;;;3.40;;
12816;SDS011;6473;51.552;6.716;2022-08-03T06:13:37;6.47;;;3.70;;
12816;SDS011;6473;51.552;6.716;2022-08-03T06:16:06;5.60;;;2.90;;
12816;SDS011;6473;51.552;6.716;2022-08-03T06:18:33;6.20;;;3.28;;
12816;SDS011;6473;51.552;6.716;2022-08-03T06:21:00;4.95;;;3.03;;
12816;SDS011;6473;51.552;6.716;2022-08-03T06:23:27;5.38;;;3.15;;
12816;SDS011;6473;51.552;6.716;2022-08-03T06:25:54;6.45;;;3.20;;
12816;SDS011;6473;51.552;6.716;2022-08-03T06:28:21;5.05;;;2.97;;
12816;SDS011;6473;51.552;6.716;2022-08-03T06:30:48;5.35;;;2.70;;
12816;SDS011;6473;51.552;6.716;2022-08-03T06:33:16;4.35;;;3.40;;
12816;SDS011;6473;51.552;6.716;2022-08-03T06:35:43;6.63;;;3.38;;
12816;SDS011;6473;51.552;6.716;2022-08-03T06:38:10;5.47;;;2.90;;
12816;SDS011;6473;51.552;6.716;2022-08-03T06:40:38;3.85;;;2.55;;
12816;SDS011;6473;51.552;6.716;2022-08-03T06:43:05;6.07;;;3.20;;
12816;SDS011;6473;51.552;6.716;2022-08-03T06:45:33;6.45;;;3.20;;
12816;SDS011;6473;51.552;6.716;2022-08-03T06:48:01;5.32;;;2.80;;
12816;SDS011;6473;51.552;6.716;2022-08-03T06:50:30;5.80;;;3.17;;
12816;SDS011;6473;51.552;6.716;2022-08-03T06:52:58;5.88;;;3.10;;
12816;SDS011;6473;51.552;6.716;2022-08-03T06:55:25;6.38;;;3.00;;
12816;SDS011;6473;51.552;6.716;2022-08-03T06:57:52;6.97;;;3.15;;
12816;SDS011;6473;51.552;6.716;2022-08-03T07:00:20;6.57;;;3.03;;
12816;SDS011;6473;51.552;6.716;2022-08-03T07:02:47;5.03;;;2.88;;
12816;SDS011;6473;51.552;6.716;2022-08-03T07:05:14;4.53;;;2.88;;
12816;SDS011;6473;51.552;6.716;2022-08-03T07:07:42;6.50;;;2.70;;
12816;SDS011;6473;51.552;6.716;2022-08-03T07:10:10;5.70;;;2.88;;
12816;SDS011;6473;51.552;6.716;2022-08-03T07:12:37;3.80;;;2.45;;
12816;SDS011;6473;51.552;6.716;2022-08-03T07:15:05;3.53;;;2.67;;
12816;SDS011;6473;51.552;6.716;2022-08-03T07:17:33;3.67;;;2.40;;
12816;SDS011;6473;51.552;6.716;2022-08-03T07:20:01;5.70;;;2.50;;
12816;SDS011;6473;51.552;6.716;2022-08-03T07:22:30;4.50;;;2.50;;
12816;SDS011;6473;51.552;6.716;2022-08-03T07:24:59;2.92;;;2.30;;
12816;SDS011;6473;51.552;6.716;2022-08-03T07:27:27;4.03;;;2.40;;
12816;SDS011;6473;51.552;6.716;2022-08-03T07:29:54;4.15;;;1.70;;
12816;SDS011;6473;51.552;6.716;2022-08-03T07:32:21;2.60;;;1.63;;
12816;SDS011;6473;51.552;6.716;2022-08-03T07:34:49;3.30;;;1.77;;
12816;SDS011;6473;51.552;6.716;2022-08-03T07:37:16;3.70;;;1.50;;
12816;SDS011;6473;51.552;6.716;2022-08-03T07:39:42;3.28;;;1.48;;
12816;SDS011;6473;51.552;6.716;2022-08-03T07:42:11;3.45;;;1.50;;
12816;SDS011;6473;51.552;6.716;2022-08-03T07:44:38;6.65;;;1.90;;
12816;SDS011;6473;51.552;6.716;2022-08-03T07:47:05;2.30;;;1.50;;
12816;SDS011;6473;51.552;6.716;2022-08-03T07:49:32;2.53;;;1.75;;
12816;SDS011;6473;51.552;6.716;2022-08-03T07:51:58;2.28;;;1.52;;
12816;SDS011;6473;51.552;6.716;2022-08-03T07:54:43;3.10;;;1.60;;
12816;SDS011;6473;51.552;6.716;2022-08-03T07:57:11;4.38;;;1.50;;
12816;SDS011;6473;51.552;6.716;2022-08-03T07:59:38;4.25;;;1.85;;
12816;SDS011;6473;51.552;6.716;2022-08-03T08:02:05;1.98;;;1.60;;
12816;SDS011;6473;51.552;6.716;2022-08-03T08:04:32;3.13;;;1.50;;
12816;SDS011;6473;51.552;6.716;2022-08-03T08:06:59;2.58;;;1.50;;
12816;SDS011;6473;51.552;6.716;2022-08-03T08:09:26;2.10;;;1.45;;
12816;SDS011;6473;51.552;6.716;2022-08-03T08:11:53;3.33;;;1.52;;
12816;SDS011;6473;51.552;6.716;2022-08-03T08:14:21;1.90;;;1.42;;
12816;SDS011;6473;51.552;6.716;2022-08-03T08:16:48;4.45;;;1.42;;
12816;SDS011;6473;51.552;6.716;2022-08-03T08:19:15;2.53;;;1.63;;
12816;SDS011;6473;51.552;6.716;2022-08-03T08:21:42;3.85;;;1.58;;
12816;SDS011;6473;51.552;6.716;2022-08-03T08:24:09;2.17;;;1.50;;
12816;SDS011;6473;51.552;6.716;2022-08-03T08:26:36;5.70;;;1.83;;
12816;SDS011;6473;51.552;6.716;2022-08-03T08:29:03;2.33;;;1.83;;
12816;SDS011;6473;51.552;6.716;2022-08-03T08:31:32;4.53;;;1.42;;
12816;SDS011;6473;51.552;6.716;2022-08-03T08:33:58;3.47;;;1.63;;
12816;SDS011;6473;51.552;6.716;2022-08-03T08:36:29;3.17;;;1.85;;
12816;SDS011;6473;51.552;6.716;2022-08-03T08:38:57;2.72;;;1.63;;
12816;SDS011;6473;51.552;6.716;2022-08-03T08:41:25;3.38;;;1.80;;
12816;SDS011;6473;51.552;6.716;2022-08-03T08:43:52;3.25;;;1.23;;
12816;SDS011;6473;51.552;6.716;2022-08-03T08:46:20;2.20;;;1.33;;
12816;SDS011;6473;51.552;6.716;2022-08-03T08:48:48;6.47;;;1.70;;
12816;SDS011;6473;51.552;6.716;2022-08-03T08:51:17;2.38;;;1.40;;
12816;SDS011;6473;51.552;6.716;2022-08-03T08:53:46;2.28;;;1.40;;
12816;SDS011;6473;51.552;6.716;2022-08-03T08:56:15;2.70;;;1.48;;
12816;SDS011;6473;51.552;6.716;2022-08-03T08:58:43;2.65;;;1.40;;
12816;SDS011;6473;51.552;6.716;2022-08-03T09:01:15;2.05;;;1.40;;
12816;SDS011;6473;51.552;6.716;2022-08-03T09:03:43;3.60;;;1.50;;
12816;SDS011;6473;51.552;6.716;2022-08-03T09:06:12;2.92;;;1.50;;
12816;SDS011;6473;51.552;6.716;2022-08-03T09:08:39;3.72;;;1.52;;
12816;SDS011;6473;51.552;6.716;2022-08-03T09:11:06;2.35;;;1.50;;
12816;SDS011;6473;51.552;6.716;2022-08-03T09:13:33;4.80;;;1.60;;
12816;SDS011;6473;51.552;6.716;2022-08-03T09:16:11;3.60;;;1.67;;
12816;SDS011;6473;51.552;6.716;2022-08-03T09:18:39;4.03;;;1.60;;
12816;SDS011;6473;51.552;6.716;2022-08-03T09:21:13;3.30;;;1.67;;
12816;SDS011;6473;51.552;6.716;2022-08-03T09:23:45;2.05;;;1.50;;
12816;SDS011;6473;51.552;6.716;2022-08-03T09:26:18;3.75;;;1.38;;
12816;SDS011;6473;51.552;6.716;2022-08-03T09:28:47;4.03;;;1.73;;
12816;SDS011;6473;51.552;6.716;2022-08-03T09:31:28;1.88;;;1.50;;
12816;SDS011;6473;51.552;6.716;2022-08-03T09:33:56;1.63;;;1.10;;
12816;SDS011;6473;51.552;6.716;2022-08-03T09:36:36;2.45;;;1.40;;
12816;SDS011;6473;51.552;6.716;2022-08-03T09:39:05;5.38;;;1.50;;
12816;SDS011;6473;51.552;6.716;2022-08-03T09:41:35;3.35;;;1.60;;
12816;SDS011;6473;51.552;6.716;2022-08-03T09:44:02;2.33;;;1.10;;
12816;SDS011;6473;51.552;6.716;2022-08-03T09:46:30;3.00;;;1.80;;
12816;SDS011;6473;51.552;6.716;2022-08-03T09:49:10;2.45;;;1.20;;
12816;SDS011;6473;51.552;6.716;2022-08-03T09:51:39;0.95;;;0.88;;
12816;SDS011;6473;51.552;6.716;2022-08-03T09:54:06;1.73;;;1.13;;
12816;SDS011;6473;51.552;6.716;2022-08-03T09:56:38;2.30;;;1.20;;
12816;SDS011;6473;51.552;6.716;2022-08-03T09:59:09;1.55;;;1.10;;
12816;SDS011;6473;51.552;6.716;2022-08-03T10:01:37;1.80;;;1.00;;
12816;SDS011;6473;51.552;6.716;2022-08-03T10:04:10;1.65;;;1.00;;
12816;SDS011;6473;51.552;6.716;2022-08-03T10:06:40;3.38;;;1.10;;
12816;SDS011;6473;51.552;6.716;2022-08-03T10:09:08;1.15;;;1.00;;
12816;SDS011;6473;51.552;6.716;2022-08-03T10:11:37;2.55;;;1.00;;
12816;SDS011;6473;51.552;6.716;2022-08-03T10:14:06;1.25;;;1.00;;
12816;SDS011;6473;51.552;6.716;2022-08-03T10:16:34;4.97;;;1.17;;
12816;SDS011;6473;51.552;6.716;2022-08-03T10:19:02;1.30;;;1.20;;
12816;SDS011;6473;51.552;6.716;2022-08-03T10:21:31;1.98;;;1.10;;
12816;SDS011;6473;51.552;6.716;2022-08-03T10:24:03;2.22;;;1.25;;
12816;SDS011;6473;51.552;6.716;2022-08-03T10:26:31;1.42;;;1.20;;
12816;SDS011;6473;51.552;6.716;2022-08-03T10:29:01;2.10;;;1.10;;
12816;SDS011;6473;51.552;6.716;2022-08-03T10:31:34;1.65;;;1.13;;
12816;SDS011;6473;51.552;6.716;2022-08-03T10:34:05;2.10;;;0.98;;
12816;SDS011;6473;51.552;6.716;2022-08-03T10:36:38;1.17;;;0.80;;
12816;SDS011;6473;51.552;6.716;2022-08-03T10:39:07;1.50;;;0.85;;
12816;SDS011;6473;51.552;6.716;2022-08-03T10:41:38;2.00;;;1.10;;
12816;SDS011;6473;51.552;6.716;2022-08-03T10:44:09;2.63;;;1.00;;
12816;SDS011;6473;51.552;6.716;2022-08-03T10:46:40;1.13;;;0.80;;
12816;SDS011;6473;51.552;6.716;2022-08-03T10:49:10;0.95;;;0.95;;
12816;SDS011;6473;51.552;6.716;2022-08-03T10:51:38;3.03;;;1.05;;
12816;SDS011;6473;51.552;6.716;2022-08-03T10:54:07;3.83;;;1.10;;
12816;SDS011;6473;51.552;6.716;2022-08-03T10:57:41;2.72;;;0.90;;
12816;SDS011;6473;51.552;6.716;2022-08-03T11:00:08;2.90;;;0.80;;
12816;SDS011;6473;51.552;6.716;2022-08-03T11:05:33;1.45;;;0.90;;
12816;SDS011;6473;51.552;6.716;2022-08-03T11:10:54;2.28;;;1.10;;
12816;SDS011;6473;51.552;6.716;2022-08-03T11:13:24;1.33;;;1.17;;
12816;SDS011;6473;51.552;6.716;2022-08-03T11:15:56;3.83;;;1.27;;
12816;SDS011;6473;51.552;6.716;2022-08-03T11:18:24;1.45;;;1.17;;
12816;SDS011;6473;51.552;6.716;2022-08-03T11:20:52;2.05;;;1.10;;
12816;SDS011;6473;51.552;6.716;2022-08-03T11:23:38;4.18;;;1.13;;
12816;SDS011;6473;51.552;6.716;2022-08-03T11:26:08;1.02;;;1.00;;
12816;SDS011;6473;51.552;6.716;2022-08-03T11:28:42;1.83;;;1.27;;
12816;SDS011;6473;51.552;6.716;2022-08-03T11:34:10;1.63;;;1.13;;
12816;SDS011;6473;51.552;6.716;2022-08-03T11:39:38;1.92;;;1.10;;
12816;SDS011;6473;51.552;6.716;2022-08-03T11:45:09;3.13;;;1.15;;
12816;SDS011;6473;51.552;6.716;2022-08-03T11:47:37;2.10;;;1.02;;
12816;SDS011;6473;51.552;6.716;2022-08-03T11:50:04;2.15;;;1.35;;
12816;SDS011;6473;51.552;6.716;2022-08-03T11:52:33;1.75;;;1.02;;
12816;SDS011;6473;51.552;6.716;2022-08-03T11:57:50;3.03;;;1.15;;
12816;SDS011;6473;51.552;6.716;2022-08-03T12:00:24;0.95;;;0.80;;
12816;SDS011;6473;51.552;6.716;2022-08-03T12:03:04;1.95;;;1.00;;
12816;SDS011;6473;51.552;6.716;2022-08-03T12:05:32;1.83;;;1.10;;
12816;SDS011;6473;51.552;6.716;2022-08-03T12:08:00;1.98;;;0.90;;
12816;SDS011;6473;51.552;6.716;2022-08-03T12:10:27;4.25;;;1.20;;
12816;SDS011;6473;51.552;6.716;2022-08-03T12:12:56;3.10;;;1.17;;
12816;SDS011;6473;51.552;6.716;2022-08-03T12:15:24;6.68;;;1.58;;
12816;SDS011;6473;51.552;6.716;2022-08-03T12:17:51;4.10;;;1.25;;
12816;SDS011;6473;51.552;6.716;2022-08-03T12:20:20;1.08;;;0.80;;
12816;SDS011;6473;51.552;6.716;2022-08-03T12:22:48;4.40;;;1.20;;
12816;SDS011;6473;51.552;6.716;2022-08-03T12:25:19;2.50;;;1.05;;
12816;SDS011;6473;51.552;6.716;2022-08-03T12:27:47;4.63;;;1.33;;
12816;SDS011;6473;51.552;6.716;2022-08-03T12:30:16;1.10;;;1.00;;
12816;SDS011;6473;51.552;6.716;2022-08-03T12:32:44;2.38;;;1.30;;
12816;SDS011;6473;51.552;6.716;2022-08-03T12:35:20;2.42;;;1.10;;
12816;SDS011;6473;51.552;6.716;2022-08-03T12:37:49;1.67;;;0.90;;
12816;SDS011;6473;51.552;6.716;2022-08-03T12:40:23;1.73;;;0.80;;
12816;SDS011;6473;51.552;6.716;2022-08-03T12:42:51;5.30;;;1.13;;
12816;SDS011;6473;51.552;6.716;2022-08-03T12:45:20;3.63;;;1.15;;
12816;SDS011;6473;51.552;6.716;2022-08-03T12:47:48;1.17;;;0.88;;
12816;SDS011;6473;51.552;6.716;2022-08-03T12:50:22;0.82;;;0.82;;
12816;SDS011;6473;51.552;6.716;2022-08-03T12:52:50;1.02;;;0.80;;
12816;SDS011;6473;51.552;6.716;2022-08-03T12:55:18;3.80;;;1.23;;
12816;SDS011;6473;51.552;6.716;2022-08-03T12:57:46;1.27;;;0.90;;
12816;SDS011;6473;51.552;6.716;2022-08-03T13:00:14;0.75;;;0.75;;
12816;SDS011;6473;51.552;6.716;2022-08-03T13:02:44;1.25;;;0.90;;
12816;SDS011;6473;51.552;6.716;2022-08-03T13:05:12;1.52;;;0.95;;
12816;SDS011;6473;51.552;6.716;2022-08-03T13:07:39;1.27;;;0.95;;
12816;SDS011;6473;51.552;6.716;2022-08-03T13:10:07;2.42;;;1.00;;
12816;SDS011;6473;51.552;6.716;2022-08-03T13:12:46;2.40;;;0.98;;
12816;SDS011;6473;51.552;6.716;2022-08-03T13:15:14;3.13;;;1.00;;
12816;SDS011;6473;51.552;6.716;2022-08-03T13:17:42;2.30;;;0.90;;
12816;SDS011;6473;51.552;6.716;2022-08-03T13:20:11;3.45;;;1.05;;
12816;SDS011;6473;51.552;6.716;2022-08-03T13:22:37;2.60;;;1.02;;
12816;SDS011;6473;51.552;6.716;2022-08-03T13:25:07;2.80;;;0.77;;
12816;SDS011;6473;51.552;6.716;2022-08-03T13:27:34;0.70;;;0.70;;
12816;SDS011;6473;51.552;6.716;2022-08-03T13:30:01;2.15;;;0.93;;
12816;SDS011;6473;51.552;6.716;2022-08-03T13:32:28;1.52;;;0.85;;
12816;SDS011;6473;51.552;6.716;2022-08-03T13:34:55;1.77;;;0.80;;
12816;SDS011;6473;51.552;6.716;2022-08-03T13:37:23;3.75;;;1.08;;
12816;SDS011;6473;51.552;6.716;2022-08-03T13:39:50;0.80;;;0.80;;
12816;SDS011;6473;51.552;6.716;2022-08-03T13:42:17;3.05;;;0.95;;
12816;SDS011;6473;51.552;6.716;2022-08-03T13:44:44;1.40;;;0.90;;
12816;SDS011;6473;51.552;6.716;2022-08-03T13:47:11;2.97;;;1.00;;
12816;SDS011;6473;51.552;6.716;2022-08-03T13:49:38;2.70;;;0.57;;
12816;SDS011;6473;51.552;6.716;2022-08-03T13:52:05;0.60;;;0.60;;
12816;SDS011;6473;51.552;6.716;2022-08-03T13:54:33;3.38;;;0.80;;
12816;SDS011;6473;51.552;6.716;2022-08-03T13:57:00;2.80;;;0.80;;
12816;SDS011;6473;51.552;6.716;2022-08-03T13:59:27;1.13;;;0.75;;
12816;SDS011;6473;51.552;6.716;2022-08-03T14:01:54;1.50;;;0.73;;
12816;SDS011;6473;51.552;6.716;2022-08-03T14:04:21;1.35;;;0.70;;
12816;SDS011;6473;51.552;6.716;2022-08-03T14:06:48;2.42;;;0.88;;
12816;SDS011;6473;51.552;6.716;2022-08-03T14:09:15;3.53;;;0.93;;
12816;SDS011;6473;51.552;6.716;2022-08-03T14:11:44;3.97;;;0.93;;
12816;SDS011;6473;51.552;6.716;2022-08-03T14:14:11;1.15;;;0.73;;
12816;SDS011;6473;51.552;6.716;2022-08-03T14:16:39;4.97;;;1.20;;
12816;SDS011;6473;51.552;6.716;2022-08-03T14:19:07;1.05;;;0.80;;
12816;SDS011;6473;51.552;6.716;2022-08-03T14:21:34;0.68;;;0.60;;
12816;SDS011;6473;51.552;6.716;2022-08-03T14:24:01;1.35;;;0.82;;
12816;SDS011;6473;51.552;6.716;2022-08-03T14:26:28;1.52;;;0.80;;
12816;SDS011;6473;51.552;6.716;2022-08-03T14:28:57;1.75;;;1.08;;
12816;SDS011;6473;51.552;6.716;2022-08-03T14:31:24;1.55;;;1.08;;
12816;SDS011;6473;51.552;6.716;2022-08-03T14:33:51;2.50;;;0.65;;
12816;SDS011;6473;51.552;6.716;2022-08-03T14:36:18;1.65;;;0.70;;
12816;SDS011;6473;51.552;6.716;2022-08-03T14:38:44;1.38;;;0.95;;
12816;SDS011;6473;51.552;6.716;2022-08-03T14:41:11;2.10;;;0.80;;
12816;SDS011;6473;51.552;6.716;2022-08-03T14:43:39;1.52;;;0.60;;
12816;SDS011;6473;51.552;6.716;2022-08-03T14:46:07;2.42;;;0.77;;
12816;SDS011;6473;51.552;6.716;2022-08-03T14:48:34;0.73;;;0.40;;
12816;SDS011;6473;51.552;6.716;2022-08-03T14:51:01;0.70;;;0.60;;
12816;SDS011;6473;51.552;6.716;2022-08-03T14:53:29;2.08;;;0.60;;
12816;SDS011;6473;51.552;6.716;2022-08-03T14:55:56;0.98;;;0.82;;
12816;SDS011;6473;51.552;6.716;2022-08-03T14:58:23;0.50;;;0.50;;
12816;SDS011;6473;51.552;6.716;2022-08-03T15:00:53;1.75;;;0.80;;
12816;SDS011;6473;51.552;6.716;2022-08-03T15:03:23;1.15;;;0.45;;
12816;SDS011;6473;51.552;6.716;2022-08-03T15:05:50;1.63;;;0.45;;
12816;SDS011;6473;51.552;6.716;2022-08-03T15:08:18;0.95;;;0.70;;
12816;SDS011;6473;51.552;6.716;2022-08-03T15:10:45;0.82;;;0.40;;
12816;SDS011;6473;51.552;6.716;2022-08-03T15:13:12;2.08;;;0.70;;
12816;SDS011;6473;51.552;6.716;2022-08-03T15:15:39;1.98;;;0.85;;
12816;SDS011;6473;51.552;6.716;2022-08-03T15:18:06;1.50;;;0.90;;
12816;SDS011;6473;51.552;6.716;2022-08-03T15:20:35;1.50;;;1.20;;
12816;SDS011;6473;51.552;6.716;2022-08-03T15:23:02;3.67;;;0.80;;
12816;SDS011;6473;51.552;6.716;2022-08-03T15:25:29;3.45;;;0.82;;
12816;SDS011;6473;51.552;6.716;2022-08-03T15:27:55;2.60;;;0.68;;
12816;SDS011;6473;51.552;6.716;2022-08-03T15:30:22;0.93;;;0.63;;
12816;SDS011;6473;51.552;6.716;2022-08-03T15:32:49;2.65;;;0.88;;
12816;SDS011;6473;51.552;6.716;2022-08-03T15:35:16;2.28;;;0.88;;
12816;SDS011;6473;51.552;6.716;2022-08-03T15:37:44;2.30;;;0.75;;